Time;durP1;ratioP1;P1;durP2;ratioP2;P2;SDS_P1;SDS_P2;PMS_P1;PMS_P2;Temp;Humidity;BMP_temperature;BMP_pressure;BME280_temperature;BME280_humidity;BME280_pressure;Samples;Min_cycle;Max_cycle;Signal;HPM_P1;HPM_P2
2021/12/19 00:02:26;;;;;;;9.47;5.90;;;7.40;99.90;;;;;;4935788;29;20455;-82
2021/12/19 00:10:21;;;;;;;12.03;4.87;;;7.50;99.90;;;;;;4953581;28;20045;-82
2021/12/19 00:12:46;;;;;;;11.33;5.10;;;7.50;99.90;;;;;;4907163;28;20483;-82
2021/12/19 00:15:12;;;;;;;11.13;5.80;;;7.50;99.90;;;;;;4920277;29;20039;-82
2021/12/19 00:17:38;;;;;;;13.80;6.00;;;7.50;99.90;;;;;;4904126;28;20532;-81
2021/12/19 00:20:05;;;;;;;11.40;5.90;;;7.50;99.90;;;;;;4938700;28;20043;-82
2021/12/19 00:22:32;;;;;;;16.33;6.77;;;7.40;99.90;;;;;;4921365;29;20035;-83
2021/12/19 00:24:58;;;;;;;12.43;6.00;;;7.50;99.90;;;;;;4899647;29;20086;-82
2021/12/19 00:27:23;;;;;;;11.40;5.77;;;7.50;99.90;;;;;;4902561;29;20296;-81
2021/12/19 00:29:49;;;;;;;11.53;5.67;;;7.50;99.90;;;;;;4902204;28;20514;-81
2021/12/19 00:32:15;;;;;;;10.60;5.47;;;7.50;99.90;;;;;;4917967;29;20039;-83
2021/12/19 00:34:41;;;;;;;12.10;5.47;;;7.50;99.90;;;;;;4921191;28;20047;-82
2021/12/19 00:37:07;;;;;;;13.53;6.07;;;7.50;99.90;;;;;;4936180;29;20051;-83
2021/12/19 00:39:32;;;;;;;13.60;6.37;;;7.50;99.90;;;;;;4920924;28;20529;-81
2021/12/19 00:41:58;;;;;;;13.20;6.13;;;7.50;99.90;;;;;;4921139;29;20039;-83
2021/12/19 00:44:26;;;;;;;13.77;6.20;;;7.50;99.90;;;;;;4901432;28;20059;-82
2021/12/19 00:47:04;;;;;;;13.27;6.50;;;7.50;99.90;;;;;;4954389;28;20045;-82
2021/12/19 00:49:30;;;;;;;12.17;6.10;;;7.50;99.90;;;;;;4914973;29;20070;-83
2021/12/19 00:51:56;;;;;;;12.13;6.13;;;7.50;99.90;;;;;;4947697;28;20114;-82
2021/12/19 00:54:22;;;;;;;13.27;6.20;;;7.50;99.90;;;;;;4922835;28;20055;-82
2021/12/19 00:56:49;;;;;;;12.13;6.60;;;7.50;99.90;;;;;;4929630;29;20044;-82
2021/12/19 00:59:16;;;;;;;12.13;6.53;;;7.50;99.90;;;;;;4936602;28;20071;-82
2021/12/19 01:01:43;;;;;;;13.50;6.50;;;7.50;99.90;;;;;;4950705;28;20046;-82
2021/12/19 01:04:12;;;;;;;15.33;6.17;;;7.50;99.90;;;;;;4938533;29;20043;-81
2021/12/19 01:06:39;;;;;;;12.83;6.70;;;7.50;99.90;;;;;;4920208;28;20039;-82
2021/12/19 01:09:05;;;;;;;11.20;5.40;;;7.50;99.90;;;;;;4919850;28;20043;-82
2021/12/19 01:11:33;;;;;;;9.77;4.87;;;7.50;99.90;;;;;;4936524;28;20042;-83
2021/12/19 01:13:59;;;;;;;9.53;4.17;;;7.50;99.90;;;;;;4918886;29;20067;-82
2021/12/19 01:16:25;;;;;;;6.77;3.70;;;7.50;99.90;;;;;;4921613;28;20510;-83
2021/12/19 01:18:50;;;;;;;9.60;3.60;;;7.50;99.90;;;;;;4887424;29;20047;-82
2021/12/19 01:21:17;;;;;;;5.17;3.13;;;7.50;99.90;;;;;;4905898;28;20035;-82
2021/12/19 01:23:43;;;;;;;6.30;3.03;;;7.50;99.90;;;;;;4901995;29;20047;-81
2021/12/19 01:26:10;;;;;;;7.40;2.80;;;7.50;99.90;;;;;;4919206;29;20098;-82
2021/12/19 01:28:36;;;;;;;4.70;2.83;;;7.60;99.90;;;;;;4905872;29;20039;-82
2021/12/19 01:31:02;;;;;;;6.67;2.90;;;7.60;99.90;;;;;;4913381;29;20098;-83
2021/12/19 01:33:27;;;;;;;6.87;3.50;;;7.50;99.90;;;;;;4902417;29;20039;-83
2021/12/19 01:35:53;;;;;;;9.93;3.40;;;7.60;99.90;;;;;;4920353;28;20063;-82
2021/12/19 01:38:19;;;;;;;6.07;3.67;;;7.60;99.90;;;;;;4929383;29;20138;-82
2021/12/19 01:40:45;;;;;;;11.23;4.93;;;7.60;99.90;;;;;;4935900;28;20047;-82
2021/12/19 01:43:11;;;;;;;12.10;5.13;;;7.60;99.90;;;;;;4955277;28;20042;-83
2021/12/19 01:45:39;;;;;;;8.87;4.23;;;7.50;99.90;;;;;;4938117;28;20121;-81
2021/12/19 01:48:11;;;;;;;5.50;3.20;;;7.50;99.90;;;;;;4922258;29;20045;-83
2021/12/19 01:50:37;;;;;;;6.50;2.92;;;7.50;99.90;;;;;;4954674;28;20400;-83
2021/12/19 01:53:05;;;;;;;5.87;2.67;;;7.50;99.90;;;;;;4919881;29;21024;-82
2021/12/19 01:55:30;;;;;;;4.57;2.57;;;7.50;99.90;;;;;;4919853;28;20043;-82
2021/12/19 01:57:56;;;;;;;5.43;2.40;;;7.50;99.90;;;;;;4955512;28;20042;-81
2021/12/19 02:00:28;;;;;;;4.93;2.20;;;7.50;99.90;;;;;;4955045;28;20043;-82
2021/12/19 02:02:55;;;;;;;5.60;2.22;;;7.40;99.90;;;;;;4936373;29;20051;-82
2021/12/19 02:05:24;;;;;;;5.23;1.70;;;7.40;99.90;;;;;;4922439;29;20225;-82
2021/12/19 02:07:52;;;;;;;3.13;2.10;;;7.40;99.90;;;;;;4938238;28;20042;-82
2021/12/19 02:10:19;;;;;;;6.13;2.10;;;7.40;99.90;;;;;;4923049;29;20075;-82
2021/12/19 02:12:48;;;;;;;2.97;1.93;;;7.40;99.90;;;;;;4924726;28;20137;-82
2021/12/19 02:15:18;;;;;;;4.07;1.60;;;7.40;99.90;;;;;;4937648;29;20035;-82
2021/12/19 02:17:45;;;;;;;4.70;1.83;;;7.40;99.90;;;;;;4938250;28;20043;-83
2021/12/19 02:20:12;;;;;;;3.37;1.47;;;7.40;99.90;;;;;;4922061;28;20041;-82
2021/12/19 02:22:38;;;;;;;3.03;1.60;;;7.40;99.90;;;;;;4920094;29;20043;-83
2021/12/19 02:25:04;;;;;;;3.33;1.20;;;7.40;99.90;;;;;;4920863;29;20039;-81
2021/12/19 02:27:30;;;;;;;3.33;1.40;;;7.40;99.90;;;;;;4921434;29;20039;-83
2021/12/19 02:29:57;;;;;;;2.07;1.00;;;7.50;99.90;;;;;;4920895;28;20041;-82
2021/12/19 02:32:24;;;;;;;4.10;1.27;;;7.30;99.90;;;;;;4937278;29;20039;-83
2021/12/19 02:34:53;;;;;;;7.97;1.23;;;7.30;99.90;;;;;;4898633;29;20057;-83
2021/12/19 02:48:14;;;;;;;1.40;1.00;;;7.40;99.90;;;;;;4933549;28;20396;-82
2021/12/19 02:50:48;;;;;;;1.60;1.10;;;7.30;99.90;;;;;;4954378;28;20447;-82
2021/12/19 02:53:23;;;;;;;2.90;1.10;;;7.30;99.90;;;;;;4950387;28;20062;-82
2021/12/19 02:55:49;;;;;;;2.73;1.00;;;7.30;99.90;;;;;;4923161;28;20492;-83
2021/12/19 02:58:14;;;;;;;1.60;0.97;;;7.30;99.90;;;;;;4921122;29;20050;-82
2021/12/19 03:00:40;;;;;;;2.30;1.20;;;7.30;99.90;;;;;;4918446;29;20132;-82
2021/12/19 03:03:06;;;;;;;3.07;1.10;;;7.30;99.90;;;;;;4917421;29;20043;-82
2021/12/19 03:05:33;;;;;;;1.37;1.00;;;7.30;99.90;;;;;;4936783;29;20074;-85
2021/12/19 03:08:01;;;;;;;3.07;1.30;;;7.30;99.90;;;;;;4904258;29;20047;-83
2021/12/19 03:13:18;;;;;;;2.60;1.52;;;7.30;99.90;;;;;;4936692;29;20051;-82
2021/12/19 03:18:29;;;;;;;1.97;1.10;;;7.30;99.90;;;;;;4954074;28;20542;-82
2021/12/19 03:20:55;;;;;;;3.63;1.40;;;7.30;99.90;;;;;;4905180;29;20057;-81
2021/12/19 03:23:21;;;;;;;1.70;0.93;;;7.20;99.90;;;;;;4922045;28;20495;-82
2021/12/19 03:25:47;;;;;;;1.83;1.00;;;7.30;99.90;;;;;;4901427;29;20035;-81
2021/12/19 03:28:14;;;;;;;1.63;0.90;;;7.20;99.90;;;;;;4916479;29;20035;-81
2021/12/19 03:30:42;;;;;;;3.13;1.07;;;7.20;99.90;;;;;;4952501;28;20557;-81
2021/12/19 03:33:09;;;;;;;2.47;1.10;;;7.10;99.90;;;;;;4936896;29;20051;-81
2021/12/19 03:35:35;;;;;;;2.00;0.97;;;7.20;99.90;;;;;;4950115;28;20043;-82
2021/12/19 03:38:05;;;;;;;1.60;0.90;;;7.20;99.90;;;;;;4939945;29;20074;-82
2021/12/19 03:40:35;;;;;;;1.80;1.00;;;7.20;99.90;;;;;;4951044;28;20035;-82
2021/12/19 03:43:10;;;;;;;1.97;0.90;;;7.10;99.90;;;;;;4919056;29;20085;-82
2021/12/19 03:45:37;;;;;;;1.63;1.03;;;7.10;99.90;;;;;;4936919;29;20043;-81
2021/12/19 03:48:04;;;;;;;1.67;1.00;;;7.00;99.90;;;;;;4939211;28;20041;-81
2021/12/19 03:50:32;;;;;;;2.20;1.00;;;7.10;99.90;;;;;;4917753;29;20067;-82
2021/12/19 03:53:00;;;;;;;1.50;1.00;;;7.00;99.90;;;;;;4920448;29;20078;-82
2021/12/19 03:55:27;;;;;;;1.37;0.87;;;7.00;99.90;;;;;;4917135;28;20047;-82
2021/12/19 03:57:53;;;;;;;2.63;1.00;;;7.00;99.90;;;;;;4935991;29;20089;-81
2021/12/19 04:00:26;;;;;;;1.10;0.70;;;7.00;99.90;;;;;;4919013;29;20123;-81
2021/12/19 04:02:57;;;;;;;1.00;0.70;;;7.00;99.90;;;;;;4934542;28;20051;-82
2021/12/19 04:05:24;;;;;;;0.77;0.40;;;7.00;99.90;;;;;;4953057;28;20039;-82
2021/12/19 04:07:50;;;;;;;1.00;0.50;;;7.00;99.90;;;;;;4922140;28;20074;-82
2021/12/19 04:10:16;;;;;;;0.93;0.60;;;6.90;99.90;;;;;;4919406;29;20049;-82
2021/12/19 04:12:43;;;;;;;0.60;0.60;;;6.90;99.90;;;;;;4919111;29;20070;-83
2021/12/19 04:15:11;;;;;;;1.60;0.70;;;6.90;99.90;;;;;;4938299;28;20043;-82
2021/12/19 04:17:38;;;;;;;1.17;0.47;;;6.90;99.90;;;;;;4919561;29;20035;-82
2021/12/19 04:20:05;;;;;;;1.43;0.70;;;6.90;99.90;;;;;;4921054;28;20049;-83
2021/12/19 04:22:31;;;;;;;1.67;0.80;;;6.90;99.90;;;;;;4919860;29;20039;-82
2021/12/19 04:24:57;;;;;;;2.10;0.80;;;6.90;99.90;;;;;;4920634;29;20043;-82
2021/12/19 04:27:23;;;;;;;1.23;0.80;;;6.90;99.90;;;;;;4936078;28;20490;-82
2021/12/19 04:29:50;;;;;;;2.90;0.90;;;6.90;99.90;;;;;;4920242;29;20055;-82
2021/12/19 04:32:18;;;;;;;2.37;1.20;;;6.90;99.90;;;;;;4953855;28;20036;-82
2021/12/19 04:34:44;;;;;;;1.40;0.97;;;6.90;99.90;;;;;;4918428;29;20042;-82
2021/12/19 04:37:59;;;;;;;4.27;1.30;;;6.90;99.90;;;;;;4919557;28;20161;-82
2021/12/19 04:40:05;;;;;;;1.60;0.90;;;6.90;99.90;;;;;;4916862;28;20102;-82
2021/12/19 04:58:21;;;;;;;2.50;1.60;;;6.90;99.90;;;;;;4954357;28;20106;-82
2021/12/19 05:01:54;;;;;;;4.47;1.93;;;6.80;99.90;;;;;;4910657;28;20131;-83
2021/12/19 05:04:04;;;;;;;6.63;2.30;;;6.90;99.90;;;;;;4929138;29;20077;-82
2021/12/19 05:14:37;;;;;;;10.03;3.17;;;7.00;99.90;;;;;;4935234;28;20510;-82
2021/12/19 05:17:15;;;;;;;13.43;3.60;;;7.00;99.90;;;;;;4954982;28;20047;-83
2021/12/19 05:19:49;;;;;;;10.57;3.47;;;6.90;99.90;;;;;;4923604;29;20050;-83
2021/12/19 05:22:17;;;;;;;10.13;4.00;;;7.00;99.90;;;;;;4955492;28;20047;-82
2021/12/19 05:24:59;;;;;;;11.87;3.60;;;6.90;99.90;;;;;;4923620;28;20501;-83
2021/12/19 05:27:25;;;;;;;;;;;7.00;99.90;;;;;;4938947;28;20453;-82
2021/12/19 05:29:51;;;;;;;12.47;4.13;;;6.90;99.90;;;;;;4939258;29;19919;-82
2021/12/19 05:32:17;;;;;;;9.60;4.27;;;6.90;99.90;;;;;;4909477;29;20043;-82
2021/12/19 05:34:42;;;;;;;12.93;4.43;;;6.90;99.90;;;;;;4939695;28;20391;-81
2021/12/19 05:45:20;;;;;;;12.00;4.67;;;7.00;99.90;;;;;;4937149;29;20081;-81
2021/12/19 05:47:50;;;;;;;11.83;5.20;;;7.00;99.90;;;;;;4923302;28;20142;-82
2021/12/19 05:50:22;;;;;;;13.63;5.30;;;7.00;99.90;;;;;;4937951;29;20446;-82
2021/12/19 05:52:49;;;;;;;18.03;6.00;;;7.10;99.90;;;;;;4952452;28;20037;-81
2021/12/19 05:55:16;;;;;;;12.70;4.67;;;7.10;99.90;;;;;;4939654;29;20053;-82
2021/12/19 05:57:43;;;;;;;17.50;5.57;;;7.00;99.90;;;;;;4939489;29;20082;-82
2021/12/19 06:00:14;;;;;;;10.60;5.03;;;7.00;99.90;;;;;;4923755;28;20039;-82
2021/12/19 06:02:41;;;;;;;14.57;5.22;;;7.00;99.90;;;;;;4938492;29;20039;-83
2021/12/19 06:05:08;;;;;;;13.43;5.03;;;7.00;99.90;;;;;;4940702;29;20499;-82
2021/12/19 06:07:34;;;;;;;14.67;6.07;;;7.00;99.90;;;;;;4939734;28;20054;-83
2021/12/19 06:10:00;;;;;;;18.37;5.73;;;7.00;99.90;;;;;;4923362;29;20043;-82
2021/12/19 06:12:26;;;;;;;20.17;6.57;;;7.00;99.90;;;;;;4937385;28;20062;-82
2021/12/19 06:14:52;;;;;;;18.47;6.00;;;7.00;99.90;;;;;;4936361;29;20043;-82
2021/12/19 06:17:18;;;;;;;15.80;6.20;;;7.10;99.90;;;;;;4935785;28;20070;-81
2021/12/19 06:19:44;;;;;;;18.30;6.77;;;7.10;99.90;;;;;;4920612;29;20465;-82
2021/12/19 06:22:10;;;;;;;19.57;6.40;;;7.10;99.90;;;;;;4937537;29;20043;-82
2021/12/19 06:24:36;;;;;;;12.83;5.13;;;7.20;99.90;;;;;;4955971;28;20075;-81
2021/12/19 06:27:02;;;;;;;14.90;6.00;;;7.10;99.90;;;;;;4955546;28;20043;-83
2021/12/19 06:29:30;;;;;;;16.33;6.30;;;7.10;99.90;;;;;;4937972;28;20040;-82
2021/12/19 06:31:56;;;;;;;17.33;6.13;;;7.10;99.90;;;;;;4937706;29;20079;-81
2021/12/19 06:34:23;;;;;;;15.80;6.83;;;7.10;99.90;;;;;;4938273;29;20046;-82
2021/12/19 06:36:51;;;;;;;23.83;7.73;;;7.10;99.90;;;;;;4937054;29;20063;-82
2021/12/19 06:39:21;;;;;;;20.77;7.40;;;7.20;99.90;;;;;;4907826;29;20083;-82
2021/12/19 06:41:47;;;;;;;15.63;7.00;;;7.10;99.90;;;;;;4931559;28;20526;-82
2021/12/19 06:44:13;;;;;;;22.00;7.67;;;7.20;99.90;;;;;;4921989;29;20438;-82
2021/12/19 06:46:39;;;;;;;18.90;7.23;;;7.10;99.90;;;;;;4936908;29;20059;-82
2021/12/19 06:49:05;;;;;;;15.07;6.00;;;7.10;99.90;;;;;;4953098;28;20044;-83
2021/12/19 06:51:31;;;;;;;13.47;5.80;;;7.10;99.90;;;;;;4940108;28;20118;-83
2021/12/19 06:53:57;;;;;;;13.57;5.57;;;7.10;99.90;;;;;;4933674;29;20046;-83
2021/12/19 06:56:23;;;;;;;18.40;6.27;;;7.20;99.90;;;;;;4888667;28;20058;-82
2021/12/19 06:58:49;;;;;;;17.73;6.53;;;7.20;99.90;;;;;;4937875;29;20102;-82
2021/12/19 07:01:15;;;;;;;16.53;6.13;;;7.20;99.90;;;;;;4956983;28;20498;-82
2021/12/19 07:03:40;;;;;;;21.43;7.27;;;7.10;99.90;;;;;;4922377;29;20106;-82
2021/12/19 07:06:06;;;;;;;15.47;6.00;;;7.20;99.90;;;;;;4951085;28;20799;-84
2021/12/19 07:08:32;;;;;;;16.73;5.90;;;7.20;99.90;;;;;;4939550;28;20043;-83
2021/12/19 07:10:58;;;;;;;17.57;6.10;;;7.10;99.90;;;;;;4903713;29;20062;-82
2021/12/19 07:13:24;;;;;;;12.20;5.20;;;7.10;99.90;;;;;;4953907;28;20057;-83
2021/12/19 07:15:54;;;;;;;16.23;5.37;;;7.10;99.90;;;;;;4903955;29;20043;-82
2021/12/19 07:18:20;;;;;;;16.30;5.83;;;7.10;99.90;;;;;;4934602;29;20040;-83
2021/12/19 07:20:46;;;;;;;15.83;4.73;;;7.10;99.90;;;;;;4921116;29;20043;-81
2021/12/19 07:23:17;;;;;;;17.33;4.47;;;7.10;99.90;;;;;;4936371;29;20047;-82
2021/12/19 07:25:43;;;;;;;17.48;5.25;;;7.10;99.90;;;;;;4936113;29;20042;-83
2021/12/19 07:28:10;;;;;;;14.50;4.50;;;7.10;99.90;;;;;;4918849;28;20114;-83
2021/12/19 07:30:37;;;;;;;10.20;3.70;;;7.10;99.90;;;;;;4918879;28;20197;-81
2021/12/19 07:33:07;;;;;;;15.90;4.10;;;7.10;99.90;;;;;;4919508;29;20035;-82
2021/12/19 07:35:36;;;;;;;12.63;4.40;;;7.20;99.90;;;;;;4937913;28;20594;-81
2021/12/19 07:38:05;;;;;;;12.10;3.73;;;7.10;99.90;;;;;;4939837;28;20523;-81
2021/12/19 07:40:39;;;;;;;8.40;3.70;;;7.10;99.90;;;;;;4937024;29;20134;-83
2021/12/19 07:43:10;;;;;;;15.90;4.10;;;7.20;99.90;;;;;;4933015;29;20051;-83
2021/12/19 07:45:36;;;;;;;13.03;4.33;;;7.10;99.90;;;;;;4903824;29;20039;-82
2021/12/19 07:48:02;;;;;;;14.67;3.63;;;7.10;99.90;;;;;;4916851;28;20134;-83
2021/12/19 07:50:29;;;;;;;15.07;3.73;;;7.10;99.90;;;;;;4917817;29;20514;-83
2021/12/19 07:52:55;;;;;;;12.87;4.40;;;7.20;99.90;;;;;;4935434;29;20051;-82
2021/12/19 07:55:23;;;;;;;15.50;4.27;;;7.10;99.90;;;;;;4935119;29;20034;-83
2021/12/19 07:57:49;;;;;;;12.67;4.03;;;7.20;99.90;;;;;;4935904;29;20047;-82
2021/12/19 08:00:15;;;;;;;15.50;4.13;;;7.10;99.90;;;;;;4952713;28;20066;-82
2021/12/19 08:02:42;;;;;;;13.90;4.80;;;7.10;99.90;;;;;;4919726;29;20098;-83
2021/12/19 08:05:09;;;;;;;15.43;4.17;;;7.10;99.90;;;;;;4952187;28;20112;-83
2021/12/19 08:07:35;;;;;;;18.63;4.23;;;7.10;99.90;;;;;;4935797;29;20031;-83
2021/12/19 08:10:13;;;;;;;15.03;4.37;;;7.20;99.90;;;;;;4920928;29;20109;-82
2021/12/19 08:12:40;;;;;;;12.83;3.80;;;7.20;99.90;;;;;;4920379;29;20046;-82
2021/12/19 08:15:07;;;;;;;14.77;3.57;;;7.10;99.90;;;;;;4919700;29;20422;-82
2021/12/19 08:17:34;;;;;;;14.33;4.60;;;7.20;99.90;;;;;;4902762;29;20051;-82
2021/12/19 08:20:01;;;;;;;13.07;3.93;;;7.20;99.90;;;;;;4938036;29;20047;-82
2021/12/19 08:22:28;;;;;;;14.73;4.10;;;7.10;99.90;;;;;;4954150;28;20039;-82
2021/12/19 08:24:56;;;;;;;16.80;4.70;;;7.20;99.90;;;;;;4919955;28;20039;-82
2021/12/19 08:27:22;;;;;;;11.67;3.93;;;7.20;99.90;;;;;;4938536;28;20030;-82
2021/12/19 08:29:48;;;;;;;17.37;3.67;;;7.20;99.90;;;;;;4945997;29;20093;-82
2021/12/19 08:32:14;;;;;;;14.57;3.97;;;7.20;99.90;;;;;;4953176;28;20142;-82
2021/12/19 08:34:40;;;;;;;11.57;3.40;;;7.20;99.90;;;;;;4945194;29;20499;-82
2021/12/19 08:37:07;;;;;;;12.80;3.10;;;7.20;99.90;;;;;;4937100;28;20569;-82
2021/12/19 08:39:33;;;;;;;15.27;3.60;;;7.20;99.90;;;;;;4955079;28;20066;-82
2021/12/19 08:42:00;;;;;;;10.57;3.20;;;7.20;99.90;;;;;;4954910;29;20376;-83
2021/12/19 08:44:26;;;;;;;14.13;3.33;;;7.30;99.90;;;;;;4921890;29;20055;-82
2021/12/19 08:46:52;;;;;;;16.77;3.53;;;7.20;99.90;;;;;;4974263;28;20061;-84
2021/12/19 08:49:18;;;;;;;10.10;3.17;;;7.20;99.90;;;;;;4936672;29;20114;-83
2021/12/19 08:51:44;;;;;;;15.63;3.97;;;7.30;99.90;;;;;;4907817;29;20098;-83
2021/12/19 08:54:10;;;;;;;11.00;3.63;;;7.30;99.90;;;;;;4937255;28;20038;-83
2021/12/19 08:56:36;;;;;;;11.83;3.50;;;7.30;99.90;;;;;;4939784;29;20367;-83
2021/12/19 08:59:03;;;;;;;16.20;3.93;;;7.30;99.90;;;;;;4935488;28;20054;-83
2021/12/19 09:01:31;;;;;;;18.23;3.67;;;7.30;99.90;;;;;;4973149;28;20035;-83
2021/12/19 09:03:57;;;;;;;11.63;3.40;;;7.30;99.90;;;;;;4930491;29;20055;-83
2021/12/19 09:06:22;;;;;;;21.27;4.07;;;7.30;99.90;;;;;;4942244;28;20053;-83
2021/12/19 09:08:48;;;;;;;12.83;3.27;;;7.30;99.90;;;;;;4929529;29;20071;-83
2021/12/19 09:11:14;;;;;;;15.37;4.13;;;7.30;99.90;;;;;;4929498;28;20094;-83
2021/12/19 09:13:40;;;;;;;16.10;4.13;;;7.30;99.90;;;;;;4918671;28;20094;-83
2021/12/19 09:16:05;;;;;;;16.90;3.90;;;7.30;99.90;;;;;;4948349;28;20046;-82
2021/12/19 09:18:31;;;;;;;15.33;3.93;;;7.30;99.90;;;;;;4937491;29;20122;-82
2021/12/19 09:20:57;;;;;;;13.33;3.70;;;7.40;99.90;;;;;;4928924;29;20380;-82
2021/12/19 09:23:23;;;;;;;13.13;3.43;;;7.40;99.90;;;;;;4911520;29;20095;-82
2021/12/19 09:25:49;;;;;;;11.60;3.67;;;7.40;99.90;;;;;;4924546;29;20050;-83
2021/12/19 09:28:16;;;;;;;14.80;4.40;;;7.40;99.90;;;;;;4917092;29;20035;-83
2021/12/19 09:30:43;;;;;;;17.07;3.97;;;7.40;99.90;;;;;;4930377;29;20079;-82
2021/12/19 09:33:09;;;;;;;13.20;4.07;;;7.40;99.90;;;;;;4911955;29;20039;-83
2021/12/19 09:35:35;;;;;;;15.10;4.20;;;7.40;99.90;;;;;;4919355;29;20778;-84
2021/12/19 09:38:02;;;;;;;12.73;3.47;;;7.40;99.90;;;;;;4942643;29;20067;-85
2021/12/19 09:40:34;;;;;;;12.10;3.77;;;7.40;99.90;;;;;;4950044;29;20047;-85
2021/12/19 09:43:31;;;;;;;13.77;3.80;;;7.50;99.90;;;;;;4940414;28;20085;-85
2021/12/19 09:45:59;;;;;;;11.23;3.43;;;7.40;99.90;;;;;;4954766;28;20051;-87
2021/12/19 09:48:25;;;;;;;15.37;4.00;;;7.50;99.90;;;;;;4925313;29;20130;-85
2021/12/19 09:50:51;;;;;;;15.10;3.93;;;7.40;99.90;;;;;;4925060;28;20102;-85
2021/12/19 09:53:18;;;;;;;17.70;3.50;;;7.40;99.90;;;;;;4904152;29;20075;-85
2021/12/19 09:55:44;;;;;;;18.17;4.17;;;7.50;99.90;;;;;;4931123;29;20035;-85
2021/12/19 09:58:10;;;;;;;11.47;3.60;;;7.50;99.90;;;;;;4938421;29;20035;-87
2021/12/19 10:00:36;;;;;;;13.43;3.13;;;7.50;99.90;;;;;;4929821;28;20047;-85
2021/12/19 10:03:02;;;;;;;15.27;3.43;;;7.50;99.90;;;;;;4967768;28;20047;-86
2021/12/19 10:05:28;;;;;;;17.93;3.80;;;7.50;99.90;;;;;;4929614;28;20081;-85
2021/12/19 10:08:03;;;;;;;13.03;3.30;;;7.50;99.90;;;;;;4927117;28;20039;-85
2021/12/19 10:10:54;;;;;;;13.63;3.13;;;7.50;99.90;;;;;;4940014;29;20043;-84
2021/12/19 10:13:31;;;;;;;9.47;3.50;;;7.50;99.90;;;;;;4928436;28;20133;-85
2021/12/19 10:16:00;;;;;;;11.90;3.13;;;7.50;99.90;;;;;;4942743;28;20123;-84
2021/12/19 10:18:26;;;;;;;10.93;3.20;;;7.50;99.90;;;;;;4921995;28;20047;-85
2021/12/19 10:20:57;;;;;;;11.73;3.00;;;7.50;99.90;;;;;;4955040;28;20055;-85
2021/12/19 10:23:32;;;;;;;12.67;2.87;;;7.50;99.90;;;;;;4946569;28;20142;-85
2021/12/19 10:26:06;;;;;;;7.37;2.70;;;7.50;99.90;;;;;;4940502;28;20750;-86
2021/12/19 10:28:32;;;;;;;15.43;3.17;;;7.50;99.90;;;;;;4945527;29;20410;-86
2021/12/19 10:31:01;;;;;;;14.83;3.20;;;7.50;99.90;;;;;;4930340;29;20059;-85
2021/12/19 10:33:29;;;;;;;10.87;3.07;;;7.50;99.90;;;;;;4945833;28;20126;-85
2021/12/19 10:36:04;;;;;;;13.67;3.30;;;7.50;99.90;;;;;;4949577;29;20525;-85
2021/12/19 10:38:38;;;;;;;9.00;2.73;;;7.50;99.90;;;;;;4923129;28;20058;-85
2021/12/19 10:41:17;;;;;;;8.77;2.97;;;7.50;99.90;;;;;;4946341;28;20447;-85
2021/12/19 10:43:46;;;;;;;13.93;3.33;;;7.50;99.90;;;;;;4937171;28;20047;-86
2021/12/19 10:46:13;;;;;;;12.30;3.40;;;7.50;99.90;;;;;;4928281;28;20450;-87
2021/12/19 10:48:42;;;;;;;12.67;3.70;;;7.60;99.90;;;;;;4941112;28;20035;-87
2021/12/19 10:51:17;;;;;;;10.97;3.17;;;7.60;99.90;;;;;;4939016;29;20054;-88
2021/12/19 10:53:50;;;;;;;10.63;3.07;;;7.60;99.90;;;;;;4913022;28;20101;-87
2021/12/19 10:56:17;;;;;;;7.50;3.43;;;7.70;99.90;;;;;;4941682;29;20134;-88
2021/12/19 10:58:52;;;;;;;16.90;3.67;;;7.60;99.90;;;;;;4952508;28;20104;-88
2021/12/19 11:01:35;;;;;;;15.20;4.23;;;7.70;99.90;;;;;;4927645;28;20057;-87
2021/12/19 11:04:03;;;;;;;12.03;3.70;;;7.70;99.90;;;;;;4925886;28;20039;-87
2021/12/19 11:06:31;;;;;;;11.37;3.13;;;7.70;99.90;;;;;;4932396;28;20129;-86
2021/12/19 11:08:58;;;;;;;11.10;3.17;;;7.60;99.90;;;;;;4946654;28;20054;-88
2021/12/19 11:11:48;;;;;;;11.17;3.17;;;7.70;99.90;;;;;;4944846;28;20039;-88
2021/12/19 11:14:24;;;;;;;13.23;3.13;;;7.70;99.90;;;;;;4942002;28;20054;-87
2021/12/19 11:16:53;;;;;;;13.33;2.77;;;7.80;99.90;;;;;;4930849;29;20488;-88
2021/12/19 11:19:19;;;;;;;13.13;3.30;;;7.70;99.90;;;;;;4933180;28;20054;-87
2021/12/19 11:21:45;;;;;;;13.20;2.80;;;7.70;99.90;;;;;;4911951;28;20118;-89
2021/12/19 11:24:17;;;;;;;12.60;2.47;;;7.70;99.90;;;;;;4950845;29;20082;-87
2021/12/19 11:26:45;;;;;;;10.10;2.53;;;7.70;99.90;;;;;;4928924;29;20046;-88
2021/12/19 11:29:15;;;;;;;8.13;2.50;;;7.70;99.90;;;;;;4940085;28;20043;-87
2021/12/19 11:31:45;;;;;;;6.10;2.40;;;7.80;99.90;;;;;;4939568;29;20514;-88
2021/12/19 11:34:18;;;;;;;10.37;2.80;;;7.80;99.90;;;;;;4927769;28;20090;-87
2021/12/19 11:37:02;;;;;;;9.20;2.00;;;7.80;99.90;;;;;;4925487;28;20526;-87
2021/12/19 11:39:35;;;;;;;11.33;2.70;;;7.80;99.90;;;;;;4914936;29;20075;-88
2021/12/19 11:42:14;;;;;;;7.17;2.70;;;7.80;99.90;;;;;;4919700;29;20059;-87
2021/12/19 11:45:03;;;;;;;9.67;2.30;;;7.90;99.90;;;;;;4916006;28;20043;-88
2021/12/19 11:47:57;;;;;;;8.27;2.70;;;7.90;99.90;;;;;;4932037;29;20039;-88
2021/12/19 11:50:32;;;;;;;14.20;3.23;;;7.90;99.90;;;;;;4931870;29;20109;-88
2021/12/19 11:53:07;;;;;;;12.13;2.63;;;7.90;99.90;;;;;;4933208;28;20130;-89
2021/12/19 11:55:38;;;;;;;13.73;2.80;;;7.90;99.90;;;;;;4927779;29;20039;-88
2021/12/19 11:58:07;;;;;;;12.10;2.22;;;7.90;99.90;;;;;;4925026;29;20071;-88
2021/12/19 12:00:47;;;;;;;16.10;2.87;;;7.90;99.90;;;;;;4935332;29;20063;-85
2021/12/19 12:03:13;;;;;;;9.77;2.57;;;7.90;99.90;;;;;;4928434;29;20047;-86
2021/12/19 12:05:47;;;;;;;12.47;2.60;;;7.90;99.90;;;;;;4915302;29;20039;-87
2021/12/19 12:08:19;;;;;;;13.87;3.67;;;7.90;99.90;;;;;;4931555;29;20043;-87
2021/12/19 12:10:51;;;;;;;12.70;3.28;;;7.90;99.90;;;;;;4939027;29;20035;-85
2021/12/19 12:13:35;;;;;;;12.37;3.20;;;7.90;99.90;;;;;;4926246;28;20039;-86
2021/12/19 12:16:22;;;;;;;14.97;2.80;;;7.90;99.90;;;;;;4924940;29;20081;-86
2021/12/19 12:19:00;;;;;;;13.73;2.77;;;7.90;99.90;;;;;;4911356;29;20047;-85
2021/12/19 12:24:06;;;;;;;10.60;3.00;;;8.00;99.90;;;;;;4947282;28;20065;-87
2021/12/19 12:26:46;;;;;;;14.97;3.17;;;8.00;99.90;;;;;;4941237;28;20051;-86
2021/12/19 12:29:13;;;;;;;15.47;2.97;;;8.00;99.90;;;;;;4926013;28;20530;-87
2021/12/19 12:31:42;;;;;;;16.67;3.67;;;8.00;99.90;;;;;;4936726;29;20035;-87
2021/12/19 12:34:11;;;;;;;16.40;3.73;;;8.00;99.90;;;;;;4923892;29;20055;-86
2021/12/19 12:36:37;;;;;;;12.13;2.70;;;8.00;99.90;;;;;;4933954;29;20526;-85
2021/12/19 12:39:08;;;;;;;15.50;3.33;;;8.00;99.90;;;;;;4943183;29;20191;-87
2021/12/19 12:44:19;;;;;;;14.17;4.33;;;7.90;99.90;;;;;;4932282;29;20134;-87
2021/12/19 12:46:52;;;;;;;16.55;3.28;;;8.00;99.90;;;;;;4923111;29;20043;-88
2021/12/19 12:49:29;;;;;;;14.03;3.07;;;8.00;99.90;;;;;;4929137;29;20043;-87
2021/12/19 12:51:57;;;;;;;18.00;4.70;;;8.00;99.90;;;;;;4951389;28;20038;-88
2021/12/19 12:54:34;;;;;;;15.77;3.47;;;8.00;99.90;;;;;;4954823;28;20127;-87
2021/12/19 12:57:03;;;;;;;16.37;4.10;;;8.00;99.90;;;;;;4946008;29;20043;-88
2021/12/19 12:59:35;;;;;;;21.47;3.60;;;8.10;99.90;;;;;;4941726;29;20039;-88
2021/12/19 13:04:37;;;;;;;18.57;3.33;;;8.00;99.90;;;;;;4936081;29;20083;-87
2021/12/19 13:07:09;;;;;;;20.43;3.63;;;8.00;99.90;;;;;;4948428;29;20046;-87
2021/12/19 13:09:41;;;;;;;17.23;3.10;;;8.00;99.90;;;;;;4924632;29;20035;-88
2021/12/19 13:12:09;;;;;;;15.70;3.50;;;8.10;99.90;;;;;;4920522;29;20507;-88
2021/12/19 13:14:42;;;;;;;14.10;3.13;;;8.00;99.90;;;;;;4944191;28;20071;-87
2021/12/19 13:17:32;;;;;;;13.80;3.47;;;8.00;99.90;;;;;;4947863;29;20035;-86
2021/12/19 13:20:20;;;;;;;18.03;3.27;;;8.00;99.90;;;;;;4939312;29;20039;-89
2021/12/19 13:22:54;;;;;;;14.90;3.47;;;8.00;99.90;;;;;;4974061;28;20035;-87
2021/12/19 13:25:22;;;;;;;14.97;3.37;;;8.00;99.90;;;;;;4957105;28;20043;-88
2021/12/19 13:27:58;;;;;;;18.60;3.73;;;8.00;99.90;;;;;;4911280;29;20126;-87
2021/12/19 13:30:29;;;;;;;16.33;3.53;;;7.90;99.90;;;;;;4923774;29;20043;-88
2021/12/19 13:33:04;;;;;;;14.30;3.78;;;7.90;99.90;;;;;;4916064;29;20495;-87
2021/12/19 13:35:43;;;;;;;16.73;3.83;;;7.90;99.90;;;;;;4923020;29;20098;-86
2021/12/19 13:38:18;;;;;;;16.70;3.57;;;7.90;99.90;;;;;;4938974;28;20053;-86
2021/12/19 13:40:50;;;;;;;19.77;4.27;;;7.90;99.90;;;;;;4927408;29;20039;-87
2021/12/19 13:43:27;;;;;;;17.73;4.28;;;7.90;99.90;;;;;;4925189;28;20035;-87
2021/12/19 13:45:53;;;;;;;13.23;2.80;;;7.90;99.90;;;;;;4948638;29;20450;-87
2021/12/19 13:48:19;;;;;;;13.30;3.17;;;7.90;99.90;;;;;;4941200;29;20070;-87
2021/12/19 13:50:56;;;;;;;17.33;3.60;;;7.90;99.90;;;;;;4938891;28;20047;-87
2021/12/19 13:53:23;;;;;;;23.40;3.60;;;7.90;99.90;;;;;;4940986;28;20047;-86
2021/12/19 13:56:06;;;;;;;19.20;3.47;;;7.90;99.90;;;;;;4945317;29;20047;-86
2021/12/19 13:58:43;;;;;;;11.27;3.03;;;7.90;99.90;;;;;;4925242;28;20400;-89
2021/12/19 14:01:13;;;;;;;13.30;3.07;;;7.90;99.90;;;;;;4929869;29;20055;-87
2021/12/19 14:03:41;;;;;;;12.73;3.10;;;7.90;99.90;;;;;;4929906;28;20376;-87